http://www.privatejetfinder.com

 

Airport Name : Slayton Muni

Other Name : Slayton Muni

ICAO : KDVP

IATA :

FAA : DVP

Latitude : 43.986792

Longitude : -95.782611

Country : United States

Local Date and Time : 21 Jan 2020 19:22

 

TAF (Terminal Aerodrome Forecast)

 

METAR (METeorological Aerodrome Report)

KDVP 220103Z AUTO 17025G31KT 4SM HZ CLR M09/M11 A2994 RMK AO2 T10901115

KDVP 220042Z AUTO 17022G30KT 5SM HZ CLR M09/M12 A2995 RMK AO2 T10901117

KDVP 220022Z AUTO 18020G26KT 7SM CLR M09/M12 A2996 RMK AO2 T10901118

KDVP 220003Z AUTO 18019G22KT 7SM CLR M09/M12 A2998 RMK AO2 T10901119

KDVP 212343Z AUTO 18020G28KT 5SM HZ CLR M09/M12 A2998 RMK AO2 T10891117

KDVP 212323Z AUTO 17019G23KT 7SM CLR M09/M11 A2998 RMK AO2 T10881115

KDVP 212302Z AUTO 18019G24KT 7SM CLR M09/M12 A2998 RMK AO2 T10891118

KDVP 212242Z AUTO 19019G29KT 5SM HZ CLR M09/M12 A2999 RMK AO2 T10921120

KDVP 212222Z AUTO 19019G24KT 5SM HZ CLR M09/M12 A2999 RMK AO2 T10951121

KDVP 212202Z AUTO 18020G28KT 4SM HZ CLR M10/M13 A2999 RMK AO2 T10971126

KDVP 212143Z AUTO 18021G26KT 5SM HZ CLR M10/M13 A3000 RMK AO2 T11001128

To Charter a Jet Click here.